sensor_id;sensor_type;location;lat;lon;timestamp;pressure;altitude;pressure_sealevel;temperature;humidity
39435;BME280;66825;51.880;-0.518;2024-03-06T00:00:45;100876.78;;;16.25;41.41
39435;BME280;66825;51.880;-0.518;2024-03-06T00:03:11;100878.09;;;16.28;41.25
39435;BME280;66825;51.880;-0.518;2024-03-06T00:05:36;100883.53;;;16.28;41.20
39435;BME280;66825;51.880;-0.518;2024-03-06T00:08:02;100883.03;;;16.26;41.14
39435;BME280;66825;51.880;-0.518;2024-03-06T00:10:29;100882.22;;;16.25;41.40
39435;BME280;66825;51.880;-0.518;2024-03-06T00:12:54;100867.56;;;16.16;41.26
39435;BME280;66825;51.880;-0.518;2024-03-06T00:15:20;100884.97;;;16.20;41.23
39435;BME280;66825;51.880;-0.518;2024-03-06T00:17:45;100857.06;;;16.04;41.16
39435;BME280;66825;51.880;-0.518;2024-03-06T00:20:11;100895.84;;;16.20;41.31
39435;BME280;66825;51.880;-0.518;2024-03-06T00:22:37;100885.75;;;16.20;41.35
39435;BME280;66825;51.880;-0.518;2024-03-06T00:25:02;100884.97;;;16.20;41.07
39435;BME280;66825;51.880;-0.518;2024-03-06T00:27:31;100873.88;;;16.11;41.41
39435;BME280;66825;51.880;-0.518;2024-03-06T00:29:56;100775.81;;;15.37;41.14
39435;BME280;66825;51.880;-0.518;2024-03-06T00:32:22;100899.09;;;16.17;41.16
39435;BME280;66825;51.880;-0.518;2024-03-06T00:34:49;100895.59;;;16.16;41.47
39435;BME280;66825;51.880;-0.518;2024-03-06T00:37:14;100891.28;;;16.10;41.52
39435;BME280;66825;51.880;-0.518;2024-03-06T00:39:40;100895.03;;;16.14;41.52
39435;BME280;66825;51.880;-0.518;2024-03-06T00:42:05;100873.91;;;16.01;41.41
39435;BME280;66825;51.880;-0.518;2024-03-06T00:44:31;100887.47;;;16.06;41.34
39435;BME280;66825;51.880;-0.518;2024-03-06T00:46:56;100757.91;;;15.25;41.64
39435;BME280;66825;51.880;-0.518;2024-03-06T00:49:21;100864.19;;;15.90;41.58
39435;BME280;66825;51.880;-0.518;2024-03-06T00:51:47;100899.41;;;16.10;41.25
39435;BME280;66825;51.880;-0.518;2024-03-06T00:54:12;100897.78;;;16.09;41.57
39435;BME280;66825;51.880;-0.518;2024-03-06T00:56:38;100895.34;;;16.08;41.33
39435;BME280;66825;51.880;-0.518;2024-03-06T00:59:04;100768.50;;;15.22;41.55
39435;BME280;66825;51.880;-0.518;2024-03-06T01:01:30;100896.44;;;16.07;41.66
39435;BME280;66825;51.880;-0.518;2024-03-06T01:03:55;100770.97;;;15.23;41.29
39435;BME280;66825;51.880;-0.518;2024-03-06T01:06:21;100902.13;;;16.05;41.56
39435;BME280;66825;51.880;-0.518;2024-03-06T01:08:46;100909.50;;;16.04;41.28
39435;BME280;66825;51.880;-0.518;2024-03-06T01:11:12;100907.88;;;16.03;41.52
39435;BME280;66825;51.880;-0.518;2024-03-06T01:13:40;100880.50;;;15.84;41.17
39435;BME280;66825;51.880;-0.518;2024-03-06T01:16:06;100888.63;;;15.95;41.53
39435;BME280;66825;51.880;-0.518;2024-03-06T01:18:31;100903.81;;;16.01;41.39
39435;BME280;66825;51.880;-0.518;2024-03-06T01:20:57;100771.53;;;15.10;41.44
39435;BME280;66825;51.880;-0.518;2024-03-06T01:23:22;100910.31;;;16.00;41.61
39435;BME280;66825;51.880;-0.518;2024-03-06T01:25:48;100907.91;;;15.98;41.60
39435;BME280;66825;51.880;-0.518;2024-03-06T01:28:13;100911.69;;;15.97;41.42
39435;BME280;66825;51.880;-0.518;2024-03-06T01:30:39;100916.34;;;15.97;41.60
39435;BME280;66825;51.880;-0.518;2024-03-06T01:33:04;100895.16;;;15.88;41.31
39435;BME280;66825;51.880;-0.518;2024-03-06T01:35:30;100911.19;;;15.90;41.37
39435;BME280;66825;51.880;-0.518;2024-03-06T01:37:55;100917.69;;;15.94;41.66
39435;BME280;66825;51.880;-0.518;2024-03-06T01:40:21;100907.91;;;15.93;41.62
39435;BME280;66825;51.880;-0.518;2024-03-06T01:42:47;100909.81;;;15.93;41.57
39435;BME280;66825;51.880;-0.518;2024-03-06T01:45:14;100913.63;;;15.92;41.58
39435;BME280;66825;51.880;-0.518;2024-03-06T01:47:39;100915.53;;;15.91;41.67
39435;BME280;66825;51.880;-0.518;2024-03-06T01:50:05;100896.22;;;15.82;41.73
39435;BME280;66825;51.880;-0.518;2024-03-06T01:52:35;100874.31;;;15.63;41.67
39435;BME280;66825;51.880;-0.518;2024-03-06T01:55:02;100916.06;;;15.88;41.59
39435;BME280;66825;51.880;-0.518;2024-03-06T01:57:27;100884.84;;;15.70;41.43
39435;BME280;66825;51.880;-0.518;2024-03-06T01:59:54;100918.78;;;15.88;41.62
39435;BME280;66825;51.880;-0.518;2024-03-06T02:02:20;100919.06;;;15.86;41.46
39435;BME280;66825;51.880;-0.518;2024-03-06T02:04:46;100914.44;;;15.82;41.65
39435;BME280;66825;51.880;-0.518;2024-03-06T02:07:12;100927.50;;;15.85;41.46
39435;BME280;66825;51.880;-0.518;2024-03-06T02:09:39;100931.03;;;15.85;41.47
39435;BME280;66825;51.880;-0.518;2024-03-06T02:12:05;100918.56;;;15.74;41.47
39435;BME280;66825;51.880;-0.518;2024-03-06T02:14:34;100907.16;;;15.67;41.61
39435;BME280;66825;51.880;-0.518;2024-03-06T02:17:00;100919.34;;;15.75;41.56
39435;BME280;66825;51.880;-0.518;2024-03-06T02:19:40;100934.25;;;15.82;41.39
39435;BME280;66825;51.880;-0.518;2024-03-06T02:22:07;100908.25;;;15.66;41.56
39435;BME280;66825;51.880;-0.518;2024-03-06T02:24:33;100939.19;;;15.80;41.50
39435;BME280;66825;51.880;-0.518;2024-03-06T02:26:59;100931.03;;;15.80;41.66
39435;BME280;66825;51.880;-0.518;2024-03-06T02:29:24;100866.19;;;15.43;41.59
39435;BME280;66825;51.880;-0.518;2024-03-06T02:31:50;100917.16;;;15.71;41.61
39435;BME280;66825;51.880;-0.518;2024-03-06T02:34:15;100870.28;;;15.45;41.77
39435;BME280;66825;51.880;-0.518;2024-03-06T02:36:41;100898.75;;;15.58;41.63
39435;BME280;66825;51.880;-0.518;2024-03-06T02:39:08;100904.97;;;15.64;41.73
39435;BME280;66825;51.880;-0.518;2024-03-06T02:41:37;100768.34;;;14.82;41.61
39435;BME280;66825;51.880;-0.518;2024-03-06T02:44:02;100896.56;;;15.60;41.44
39435;BME280;66825;51.880;-0.518;2024-03-06T02:46:29;100935.66;;;15.75;41.61
39435;BME280;66825;51.880;-0.518;2024-03-06T02:48:54;100923.97;;;15.74;41.55
39435;BME280;66825;51.880;-0.518;2024-03-06T02:51:20;100922.34;;;15.73;41.63
39435;BME280;66825;51.880;-0.518;2024-03-06T02:53:46;100907.97;;;15.62;41.70
39435;BME280;66825;51.880;-0.518;2024-03-06T02:56:18;100887.38;;;15.46;41.57
39435;BME280;66825;51.880;-0.518;2024-03-06T02:58:44;100925.31;;;15.71;41.81
39435;BME280;66825;51.880;-0.518;2024-03-06T03:01:10;100929.16;;;15.70;41.65
39435;BME280;66825;51.880;-0.518;2024-03-06T03:03:36;100928.31;;;15.70;41.68
39435;BME280;66825;51.880;-0.518;2024-03-06T03:06:01;100897.13;;;15.52;41.65
39435;BME280;66825;51.880;-0.518;2024-03-06T03:08:27;100769.16;;;14.72;41.67
39435;BME280;66825;51.880;-0.518;2024-03-06T03:10:52;100899.56;;;15.53;41.77
39435;BME280;66825;51.880;-0.518;2024-03-06T03:13:18;100912.31;;;15.58;41.62
39435;BME280;66825;51.880;-0.518;2024-03-06T03:15:43;100921.81;;;15.66;41.90
39435;BME280;66825;51.880;-0.518;2024-03-06T03:18:09;100833.16;;;15.09;41.16
39435;BME280;66825;51.880;-0.518;2024-03-06T03:20:34;100920.19;;;15.65;41.62
39435;BME280;66825;51.880;-0.518;2024-03-06T03:23:02;100917.75;;;15.63;42.00
39435;BME280;66825;51.880;-0.518;2024-03-06T03:25:27;100914.22;;;15.63;41.71
39435;BME280;66825;51.880;-0.518;2024-03-06T03:27:53;100917.75;;;15.63;41.68
39435;BME280;66825;51.880;-0.518;2024-03-06T03:30:18;100888.16;;;15.46;41.52
39435;BME280;66825;51.880;-0.518;2024-03-06T03:32:47;100912.59;;;15.62;41.76
39435;BME280;66825;51.880;-0.518;2024-03-06T03:35:14;100920.72;;;15.62;41.61
39435;BME280;66825;51.880;-0.518;2024-03-06T03:37:39;100863.25;;;15.23;41.70
39435;BME280;66825;51.880;-0.518;2024-03-06T03:40:06;100922.66;;;15.61;41.82
39435;BME280;66825;51.880;-0.518;2024-03-06T03:42:32;100925.66;;;15.60;41.54
39435;BME280;66825;51.880;-0.518;2024-03-06T03:44:57;100884.16;;;15.33;41.66
39435;BME280;66825;51.880;-0.518;2024-03-06T03:47:23;100918.59;;;15.59;41.98
39435;BME280;66825;51.880;-0.518;2024-03-06T03:49:48;100919.66;;;15.57;41.75
39435;BME280;66825;51.880;-0.518;2024-03-06T03:52:14;100775.91;;;14.59;41.88
39435;BME280;66825;51.880;-0.518;2024-03-06T03:54:40;100920.75;;;15.56;41.35
39435;BME280;66825;51.880;-0.518;2024-03-06T03:57:05;100914.53;;;15.56;41.75
39435;BME280;66825;51.880;-0.518;2024-03-06T03:59:32;100910.97;;;15.55;41.83
39435;BME280;66825;51.880;-0.518;2024-03-06T04:01:57;100846.72;;;15.09;42.04
39435;BME280;66825;51.880;-0.518;2024-03-06T04:04:23;100915.59;;;15.55;41.79
39435;BME280;66825;51.880;-0.518;2024-03-06T04:06:49;100915.84;;;15.53;41.78
39435;BME280;66825;51.880;-0.518;2024-03-06T04:09:14;100925.13;;;15.52;41.92
39435;BME280;66825;51.880;-0.518;2024-03-06T04:11:40;100900.41;;;15.38;41.41
39435;BME280;66825;51.880;-0.518;2024-03-06T04:14:06;100914.25;;;15.52;41.79
39435;BME280;66825;51.880;-0.518;2024-03-06T04:16:35;100775.94;;;14.65;41.80
39435;BME280;66825;51.880;-0.518;2024-03-06T04:19:01;100916.41;;;15.50;41.79
39435;BME280;66825;51.880;-0.518;2024-03-06T04:21:27;100916.41;;;15.50;41.93
39435;BME280;66825;51.880;-0.518;2024-03-06T04:23:53;100916.41;;;15.50;41.76
39435;BME280;66825;51.880;-0.518;2024-03-06T04:26:18;100921.03;;;15.50;41.54
39435;BME280;66825;51.880;-0.518;2024-03-06T04:28:44;100925.66;;;15.49;41.71
39435;BME280;66825;51.880;-0.518;2024-03-06T04:31:09;100926.75;;;15.48;41.85
39435;BME280;66825;51.880;-0.518;2024-03-06T04:33:35;100925.94;;;15.48;41.77
39435;BME280;66825;51.880;-0.518;2024-03-06T04:36:02;100915.63;;;15.34;41.80
39435;BME280;66825;51.880;-0.518;2024-03-06T04:38:28;100929.72;;;15.47;41.52
39435;BME280;66825;51.880;-0.518;2024-03-06T04:40:54;100929.75;;;15.42;41.69
39435;BME280;66825;51.880;-0.518;2024-03-06T04:43:20;100938.16;;;15.45;41.97
39435;BME280;66825;51.880;-0.518;2024-03-06T04:45:45;100932.72;;;15.45;41.85
39435;BME280;66825;51.880;-0.518;2024-03-06T04:48:11;100943.59;;;15.45;41.76
39435;BME280;66825;51.880;-0.518;2024-03-06T04:50:37;100948.19;;;15.45;41.93
39435;BME280;66825;51.880;-0.518;2024-03-06T04:53:03;100900.72;;;15.21;41.87
39435;BME280;66825;51.880;-0.518;2024-03-06T04:55:28;100900.16;;;15.19;41.98
39435;BME280;66825;51.880;-0.518;2024-03-06T04:57:55;100936.78;;;15.43;41.98
39435;BME280;66825;51.880;-0.518;2024-03-06T05:00:21;100938.69;;;15.42;41.97
39435;BME280;66825;51.880;-0.518;2024-03-06T05:02:47;100944.13;;;15.42;41.70
39435;BME280;66825;51.880;-0.518;2024-03-06T05:05:14;100947.94;;;15.41;41.89
39435;BME280;66825;51.880;-0.518;2024-03-06T05:07:40;100935.72;;;15.33;41.91
39435;BME280;66825;51.880;-0.518;2024-03-06T05:10:06;100937.06;;;15.36;41.92
39435;BME280;66825;51.880;-0.518;2024-03-06T05:12:33;100940.06;;;15.39;41.81
39435;BME280;66825;51.880;-0.518;2024-03-06T05:15:00;100945.50;;;15.39;41.85
39435;BME280;66825;51.880;-0.518;2024-03-06T05:17:25;100942.78;;;15.39;41.74
39435;BME280;66825;51.880;-0.518;2024-03-06T05:19:51;100950.38;;;15.37;41.95
39435;BME280;66825;51.880;-0.518;2024-03-06T05:22:17;100955.81;;;15.37;41.93
39435;BME280;66825;51.880;-0.518;2024-03-06T05:24:43;100962.59;;;15.30;41.81
39435;BME280;66825;51.880;-0.518;2024-03-06T05:27:09;100933.28;;;15.21;42.06
39435;BME280;66825;51.880;-0.518;2024-03-06T05:29:36;100958.81;;;15.36;41.93
39435;BME280;66825;51.880;-0.518;2024-03-06T05:32:02;100848.59;;;14.63;41.77
39435;BME280;66825;51.880;-0.518;2024-03-06T05:34:29;100957.16;;;15.35;41.85
39435;BME280;66825;51.880;-0.518;2024-03-06T05:36:55;100941.72;;;15.20;41.86
39435;BME280;66825;51.880;-0.518;2024-03-06T05:39:21;100848.06;;;14.55;41.86
39435;BME280;66825;51.880;-0.518;2024-03-06T05:41:46;100958.53;;;15.22;41.97
39435;BME280;66825;51.880;-0.518;2024-03-06T05:44:12;100943.59;;;15.14;42.21
39435;BME280;66825;51.880;-0.518;2024-03-06T05:46:37;100952.03;;;15.18;41.92
39435;BME280;66825;51.880;-0.518;2024-03-06T05:49:03;100946.84;;;15.11;42.10
39435;BME280;66825;51.880;-0.518;2024-03-06T05:51:29;100976.69;;;15.32;41.91
39435;BME280;66825;51.880;-0.518;2024-03-06T05:53:55;100965.84;;;15.21;42.00
39435;BME280;66825;51.880;-0.518;2024-03-06T05:56:21;100987.03;;;15.30;41.98
39435;BME280;66825;51.880;-0.518;2024-03-06T05:58:46;100980.50;;;15.20;41.93
39435;BME280;66825;51.880;-0.518;2024-03-06T06:01:13;100971.53;;;15.15;41.97
39435;BME280;66825;51.880;-0.518;2024-03-06T06:03:41;101009.84;;;15.29;42.00
39435;BME280;66825;51.880;-0.518;2024-03-06T06:06:06;100982.13;;;15.16;42.14
39435;BME280;66825;51.880;-0.518;2024-03-06T06:08:34;100976.97;;;15.09;41.76
39435;BME280;66825;51.880;-0.518;2024-03-06T06:11:00;100972.06;;;15.06;41.89
39435;BME280;66825;51.880;-0.518;2024-03-06T06:13:25;101003.06;;;15.26;42.05
39435;BME280;66825;51.880;-0.518;2024-03-06T06:15:51;101002.22;;;15.25;41.87
39435;BME280;66825;51.880;-0.518;2024-03-06T06:18:16;100944.41;;;14.89;41.97
39435;BME280;66825;51.880;-0.518;2024-03-06T06:20:42;100989.75;;;15.19;41.90
39435;BME280;66825;51.880;-0.518;2024-03-06T06:23:08;100979.69;;;15.09;42.09
39435;BME280;66825;51.880;-0.518;2024-03-06T06:25:35;100941.94;;;14.87;42.06
39435;BME280;66825;51.880;-0.518;2024-03-06T06:28:00;100984.03;;;15.11;42.10
39435;BME280;66825;51.880;-0.518;2024-03-06T06:30:26;101002.75;;;15.17;42.03
39435;BME280;66825;51.880;-0.518;2024-03-06T06:32:52;101009.00;;;15.23;42.20
39435;BME280;66825;51.880;-0.518;2024-03-06T06:35:17;101009.00;;;15.23;42.14
39435;BME280;66825;51.880;-0.518;2024-03-06T06:37:43;101012.81;;;15.22;41.83
39435;BME280;66825;51.880;-0.518;2024-03-06T06:40:09;100929.94;;;14.63;41.98
39435;BME280;66825;51.880;-0.518;2024-03-06T06:42:35;101015.53;;;15.17;42.10
39435;BME280;66825;51.880;-0.518;2024-03-06T06:45:01;100999.22;;;15.01;42.17
39435;BME280;66825;51.880;-0.518;2024-03-06T06:47:28;100898.97;;;14.38;41.78
39435;BME280;66825;51.880;-0.518;2024-03-06T06:49:53;101028.28;;;15.21;42.21
39435;BME280;66825;51.880;-0.518;2024-03-06T06:52:19;101031.56;;;15.23;41.87
39435;BME280;66825;51.880;-0.518;2024-03-06T06:54:44;101028.84;;;15.23;41.80
39435;BME280;66825;51.880;-0.518;2024-03-06T06:57:10;101031.28;;;15.25;41.72
39435;BME280;66825;51.880;-0.518;2024-03-06T06:59:35;101043.78;;;15.26;41.87
39435;BME280;66825;51.880;-0.518;2024-03-06T07:02:02;101034.25;;;15.34;41.74
39435;BME280;66825;51.880;-0.518;2024-03-06T07:04:27;101039.16;;;15.37;41.70
39435;BME280;66825;51.880;-0.518;2024-03-06T07:06:53;101026.66;;;15.25;41.81
39435;BME280;66825;51.880;-0.518;2024-03-06T07:09:19;101056.81;;;15.45;41.77
39435;BME280;66825;51.880;-0.518;2024-03-06T07:11:44;101011.44;;;15.24;41.71
39435;BME280;66825;51.880;-0.518;2024-03-06T07:14:12;101044.59;;;15.52;41.71
39435;BME280;66825;51.880;-0.518;2024-03-06T07:16:44;101054.91;;;15.55;41.52
39435;BME280;66825;51.880;-0.518;2024-03-06T07:19:10;100984.31;;;15.14;41.61
39435;BME280;66825;51.880;-0.518;2024-03-06T07:21:36;101054.38;;;15.59;41.48
39435;BME280;66825;51.880;-0.518;2024-03-06T07:24:03;101049.50;;;15.66;41.84
39435;BME280;66825;51.880;-0.518;2024-03-06T07:26:31;101064.16;;;15.70;41.65
39435;BME280;66825;51.880;-0.518;2024-03-06T07:28:57;101048.66;;;15.65;41.63
39435;BME280;66825;51.880;-0.518;2024-03-06T07:31:23;101034.53;;;15.58;41.72
39435;BME280;66825;51.880;-0.518;2024-03-06T07:33:49;101058.16;;;15.78;41.41
39435;BME280;66825;51.880;-0.518;2024-03-06T07:36:15;101058.44;;;15.82;41.57
39435;BME280;66825;51.880;-0.518;2024-03-06T07:38:42;101063.38;;;15.85;41.58
39435;BME280;66825;51.880;-0.518;2024-03-06T07:41:07;101050.88;;;15.84;41.57
39435;BME280;66825;51.880;-0.518;2024-03-06T07:43:33;101021.22;;;15.72;41.39
39435;BME280;66825;51.880;-0.518;2024-03-06T07:45:58;101043.50;;;15.84;41.68
39435;BME280;66825;51.880;-0.518;2024-03-06T07:48:24;101056.81;;;15.96;41.34
39435;BME280;66825;51.880;-0.518;2024-03-06T07:50:49;101066.31;;;15.99;41.43
39435;BME280;66825;51.880;-0.518;2024-03-06T07:53:15;101046.78;;;15.86;41.34
39435;BME280;66825;51.880;-0.518;2024-03-06T07:55:41;101062.53;;;16.00;41.42
39435;BME280;66825;51.880;-0.518;2024-03-06T07:58:07;101069.06;;;16.04;41.49
39435;BME280;66825;51.880;-0.518;2024-03-06T08:00:36;101079.63;;;16.11;41.41
39435;BME280;66825;51.880;-0.518;2024-03-06T08:03:01;101076.38;;;16.14;41.30
39435;BME280;66825;51.880;-0.518;2024-03-06T08:05:28;100918.09;;;15.15;41.52
39435;BME280;66825;51.880;-0.518;2024-03-06T08:07:53;101070.66;;;16.15;41.38
39435;BME280;66825;51.880;-0.518;2024-03-06T08:10:19;101066.84;;;16.16;41.50
39435;BME280;66825;51.880;-0.518;2024-03-06T08:12:45;101047.03;;;16.00;41.42
39435;BME280;66825;51.880;-0.518;2024-03-06T08:15:13;101093.19;;;16.26;41.25
39435;BME280;66825;51.880;-0.518;2024-03-06T08:17:42;101084.78;;;16.23;41.12
39435;BME280;66825;51.880;-0.518;2024-03-06T08:20:09;101088.56;;;16.32;41.22
39435;BME280;66825;51.880;-0.518;2024-03-06T08:22:37;101084.75;;;16.33;41.16
39435;BME280;66825;51.880;-0.518;2024-03-06T08:25:11;101107.00;;;16.45;41.47
39435;BME280;66825;51.880;-0.518;2024-03-06T08:27:38;101094.50;;;16.44;41.14
39435;BME280;66825;51.880;-0.518;2024-03-06T08:30:05;101092.59;;;16.50;41.28
39435;BME280;66825;51.880;-0.518;2024-03-06T08:32:31;101100.44;;;16.62;41.49
39435;BME280;66825;51.880;-0.518;2024-03-06T08:35:08;101103.69;;;16.69;41.54
39435;BME280;66825;51.880;-0.518;2024-03-06T08:37:40;101109.63;;;16.76;41.71
39435;BME280;66825;51.880;-0.518;2024-03-06T08:40:07;101089.50;;;16.77;41.29
39435;BME280;66825;51.880;-0.518;2024-03-06T08:42:40;100980.97;;;16.10;41.59
39435;BME280;66825;51.880;-0.518;2024-03-06T08:45:07;101104.69;;;16.94;41.19
39435;BME280;66825;51.880;-0.518;2024-03-06T08:47:33;101100.56;;;17.02;41.29
39435;BME280;66825;51.880;-0.518;2024-03-06T08:49:59;101110.63;;;17.06;41.44
39435;BME280;66825;51.880;-0.518;2024-03-06T08:52:24;101109.25;;;17.09;41.12
39435;BME280;66825;51.880;-0.518;2024-03-06T08:54:50;101093.75;;;17.04;41.13
39435;BME280;66825;51.880;-0.518;2024-03-06T08:57:15;101114.34;;;17.21;41.13
39435;BME280;66825;51.880;-0.518;2024-03-06T08:59:41;101002.84;;;16.50;41.40
39435;BME280;66825;51.880;-0.518;2024-03-06T09:02:17;101121.34;;;17.32;41.69
39435;BME280;66825;51.880;-0.518;2024-03-06T09:04:44;101125.66;;;17.38;41.77
39435;BME280;66825;51.880;-0.518;2024-03-06T09:07:10;101121.00;;;17.44;42.04
39435;BME280;66825;51.880;-0.518;2024-03-06T09:09:35;101127.25;;;17.50;41.71
39435;BME280;66825;51.880;-0.518;2024-03-06T09:12:03;101129.63;;;17.56;41.65
39435;BME280;66825;51.880;-0.518;2024-03-06T09:14:31;101132.59;;;17.60;41.86
39435;BME280;66825;51.880;-0.518;2024-03-06T09:16:57;101096.50;;;17.44;41.95
39435;BME280;66825;51.880;-0.518;2024-03-06T09:19:22;101134.19;;;17.71;42.07
39435;BME280;66825;51.880;-0.518;2024-03-06T09:21:48;101131.41;;;17.76;42.24
39435;BME280;66825;51.880;-0.518;2024-03-06T09:24:13;101132.19;;;17.82;42.20
39435;BME280;66825;51.880;-0.518;2024-03-06T09:26:39;101113.16;;;17.72;42.23
39435;BME280;66825;51.880;-0.518;2024-03-06T09:29:05;101096.63;;;17.63;42.42
39435;BME280;66825;51.880;-0.518;2024-03-06T09:31:30;101104.75;;;17.68;41.95
39435;BME280;66825;51.880;-0.518;2024-03-06T09:33:56;101019.81;;;17.26;41.94
39435;BME280;66825;51.880;-0.518;2024-03-06T09:36:21;101155.41;;;18.09;41.77
39435;BME280;66825;51.880;-0.518;2024-03-06T09:38:47;101083.72;;;17.74;41.57
39435;BME280;66825;51.880;-0.518;2024-03-06T09:41:12;101170.31;;;18.22;41.88
39435;BME280;66825;51.880;-0.518;2024-03-06T09:43:38;101146.53;;;18.28;42.36
39435;BME280;66825;51.880;-0.518;2024-03-06T09:46:06;101149.75;;;18.35;41.82
39435;BME280;66825;51.880;-0.518;2024-03-06T09:48:33;101153.50;;;18.39;41.56
39435;BME280;66825;51.880;-0.518;2024-03-06T09:51:01;101155.13;;;18.40;41.40
39435;BME280;66825;51.880;-0.518;2024-03-06T09:53:27;101161.63;;;18.44;41.16
39435;BME280;66825;51.880;-0.518;2024-03-06T09:55:54;101060.47;;;17.82;41.27
39435;BME280;66825;51.880;-0.518;2024-03-06T09:58:21;100905.19;;;16.88;41.34
39435;BME280;66825;51.880;-0.518;2024-03-06T10:00:48;101056.13;;;17.81;40.90
39435;BME280;66825;51.880;-0.518;2024-03-06T10:03:15;101161.31;;;18.51;41.54
39435;BME280;66825;51.880;-0.518;2024-03-06T10:05:40;101165.59;;;18.57;41.43
39435;BME280;66825;51.880;-0.518;2024-03-06T10:08:08;101169.56;;;18.70;41.43
39435;BME280;66825;51.880;-0.518;2024-03-06T10:10:35;101170.59;;;18.74;41.57
39435;BME280;66825;51.880;-0.518;2024-03-06T10:13:02;101149.16;;;18.62;41.58
39435;BME280;66825;51.880;-0.518;2024-03-06T10:15:28;101155.59;;;18.71;41.58
39435;BME280;66825;51.880;-0.518;2024-03-06T10:18:20;101171.81;;;18.87;41.23
39435;BME280;66825;51.880;-0.518;2024-03-06T10:20:46;101172.84;;;18.91;40.96
39435;BME280;66825;51.880;-0.518;2024-03-06T10:23:12;101123.22;;;18.65;40.96
39435;BME280;66825;51.880;-0.518;2024-03-06T10:25:37;101169.81;;;18.98;41.20
39435;BME280;66825;51.880;-0.518;2024-03-06T10:28:07;101139.41;;;18.80;41.08
39435;BME280;66825;51.880;-0.518;2024-03-06T10:30:34;101177.66;;;19.04;41.41
39435;BME280;66825;51.880;-0.518;2024-03-06T10:33:04;101170.78;;;19.07;41.17
39435;BME280;66825;51.880;-0.518;2024-03-06T10:35:32;101179.44;;;19.14;41.01
39435;BME280;66825;51.880;-0.518;2024-03-06T10:38:00;101177.22;;;19.16;40.84
39435;BME280;66825;51.880;-0.518;2024-03-06T10:40:26;101185.34;;;19.22;41.40
39435;BME280;66825;51.880;-0.518;2024-03-06T10:42:55;101151.66;;;19.07;40.89
39435;BME280;66825;51.880;-0.518;2024-03-06T10:45:23;101183.28;;;19.32;40.84
39435;BME280;66825;51.880;-0.518;2024-03-06T10:47:51;101089.53;;;18.75;40.82
39435;BME280;66825;51.880;-0.518;2024-03-06T10:50:18;101167.22;;;19.31;40.72
39435;BME280;66825;51.880;-0.518;2024-03-06T10:52:44;101183.81;;;19.34;40.79
39435;BME280;66825;51.880;-0.518;2024-03-06T10:55:12;101157.28;;;19.16;40.67
39435;BME280;66825;51.880;-0.518;2024-03-06T10:57:39;101190.63;;;19.37;40.93
39435;BME280;66825;51.880;-0.518;2024-03-06T11:00:08;101174.56;;;19.30;41.25
39435;BME280;66825;51.880;-0.518;2024-03-06T11:02:33;101188.91;;;19.41;40.99
39435;BME280;66825;51.880;-0.518;2024-03-06T11:05:02;101151.69;;;19.26;40.60
39435;BME280;66825;51.880;-0.518;2024-03-06T11:07:30;101191.88;;;19.45;40.79
39435;BME280;66825;51.880;-0.518;2024-03-06T11:09:58;101189.13;;;19.45;40.70
39435;BME280;66825;51.880;-0.518;2024-03-06T11:12:35;101183.66;;;19.45;40.53
39435;BME280;66825;51.880;-0.518;2024-03-06T11:15:13;101182.41;;;19.37;40.44
39435;BME280;66825;51.880;-0.518;2024-03-06T11:17:39;101078.97;;;18.68;40.75
39435;BME280;66825;51.880;-0.518;2024-03-06T11:28:20;101179.59;;;19.42;40.94
39435;BME280;66825;51.880;-0.518;2024-03-06T11:30:46;101081.84;;;18.77;41.36
39435;BME280;66825;51.880;-0.518;2024-03-06T11:33:14;101187.22;;;19.45;40.77
39435;BME280;66825;51.880;-0.518;2024-03-06T11:38:56;101196.75;;;19.48;41.18
39435;BME280;66825;51.880;-0.518;2024-03-06T11:41:23;101195.91;;;19.47;40.88
39435;BME280;66825;51.880;-0.518;2024-03-06T11:43:50;101193.78;;;19.44;40.77
39435;BME280;66825;51.880;-0.518;2024-03-06T11:46:19;101196.22;;;19.46;40.88
39435;BME280;66825;51.880;-0.518;2024-03-06T11:48:52;101164.53;;;19.26;41.08
39435;BME280;66825;51.880;-0.518;2024-03-06T11:51:18;101201.34;;;19.52;40.86
39435;BME280;66825;51.880;-0.518;2024-03-06T11:53:44;101209.75;;;19.56;40.95
39435;BME280;66825;51.880;-0.518;2024-03-06T11:56:10;101204.22;;;19.61;41.09
39435;BME280;66825;51.880;-0.518;2024-03-06T11:58:36;101204.13;;;19.66;41.07
39435;BME280;66825;51.880;-0.518;2024-03-06T12:01:03;101051.09;;;18.71;40.99
39435;BME280;66825;51.880;-0.518;2024-03-06T12:03:29;101184.31;;;19.56;41.11
39435;BME280;66825;51.880;-0.518;2024-03-06T12:05:55;101195.25;;;19.75;40.98
39435;BME280;66825;51.880;-0.518;2024-03-06T12:08:21;101174.44;;;19.60;40.93
39435;BME280;66825;51.880;-0.518;2024-03-06T12:10:46;101195.78;;;19.77;41.04
39435;BME280;66825;51.880;-0.518;2024-03-06T12:13:14;101104.72;;;19.24;40.21
39435;BME280;66825;51.880;-0.518;2024-03-06T12:15:43;101193.50;;;19.84;40.30
39435;BME280;66825;51.880;-0.518;2024-03-06T12:18:10;101162.69;;;19.59;40.17
39435;BME280;66825;51.880;-0.518;2024-03-06T12:20:41;101046.22;;;18.87;40.26
39435;BME280;66825;51.880;-0.518;2024-03-06T12:23:07;101191.84;;;19.83;40.57
39435;BME280;66825;51.880;-0.518;2024-03-06T12:25:32;101175.91;;;19.71;40.29
39435;BME280;66825;51.880;-0.518;2024-03-06T12:28:07;101189.06;;;19.88;40.25
39435;BME280;66825;51.880;-0.518;2024-03-06T12:30:43;101195.56;;;19.92;40.47
39435;BME280;66825;51.880;-0.518;2024-03-06T12:33:10;101178.94;;;19.89;40.44
39435;BME280;66825;51.880;-0.518;2024-03-06T12:35:40;101196.00;;;19.99;40.08
39435;BME280;66825;51.880;-0.518;2024-03-06T12:38:16;101187.50;;;20.01;39.99
39435;BME280;66825;51.880;-0.518;2024-03-06T12:40:42;101186.16;;;19.98;39.87
39435;BME280;66825;51.880;-0.518;2024-03-06T12:43:08;101192.38;;;20.04;39.87
39435;BME280;66825;51.880;-0.518;2024-03-06T12:45:35;101186.59;;;20.06;39.63
39435;BME280;66825;51.880;-0.518;2024-03-06T12:48:02;101200.88;;;20.03;39.24